createdAt,value
2019-03-21T00:01:07.050Z,8.03
2019-03-21T00:03:37.342Z,7.67
2019-03-21T00:06:08.954Z,6.97
2019-03-21T00:08:39.326Z,7.50
2019-03-21T00:11:44.856Z,7.47
2019-03-21T00:14:38.143Z,8.77
2019-03-21T00:17:08.422Z,8.23
2019-03-21T00:19:39.935Z,8.13
2019-03-21T00:22:10.232Z,6.87
2019-03-21T00:24:40.582Z,8.07
2019-03-21T00:27:10.834Z,7.77
2019-03-21T00:29:41.082Z,9.00
2019-03-21T00:32:11.320Z,7.97
2019-03-21T00:34:42.452Z,8.57
2019-03-21T00:37:13.023Z,7.80
2019-03-21T00:39:43.245Z,9.10
2019-03-21T00:42:13.601Z,10.30
2019-03-21T00:44:43.930Z,10.60
2019-03-21T00:47:14.182Z,10.40
2019-03-21T00:49:44.430Z,11.00
2019-03-21T00:52:14.653Z,12.00
2019-03-21T00:54:44.898Z,12.10
2019-03-21T00:57:15.156Z,11.90
2019-03-21T00:59:45.402Z,13.00
2019-03-21T01:02:15.695Z,11.93
2019-03-21T01:04:45.959Z,11.77
2019-03-21T01:07:17.210Z,13.50
2019-03-21T01:09:47.847Z,13.43
2019-03-21T01:12:18.075Z,11.13
2019-03-21T01:14:48.310Z,12.43
2019-03-21T01:17:18.534Z,13.50
2019-03-21T01:19:48.798Z,12.17
2019-03-21T01:22:19.027Z,13.93
2019-03-21T01:24:50.878Z,11.83
2019-03-21T01:27:21.095Z,13.23
2019-03-21T01:29:51.330Z,14.10
2019-03-21T01:32:22.646Z,12.57
2019-03-21T01:34:52.891Z,11.57
2019-03-21T01:37:23.586Z,11.97
2019-03-21T01:39:53.866Z,10.83
2019-03-21T01:42:24.164Z,10.53
2019-03-21T01:44:54.447Z,11.03
2019-03-21T01:47:24.691Z,10.80
2019-03-21T01:49:54.927Z,9.67
2019-03-21T01:52:25.168Z,8.97
2019-03-21T01:54:55.507Z,9.63
2019-03-21T01:57:25.794Z,9.07
2019-03-21T01:59:57.082Z,8.57
2019-03-21T02:02:29.094Z,9.80
2019-03-21T02:04:59.314Z,8.07
2019-03-21T02:07:29.566Z,6.80
2019-03-21T02:09:59.878Z,8.83
2019-03-21T02:12:30.141Z,7.80
2019-03-21T02:15:00.374Z,7.50
2019-03-21T02:17:30.639Z,7.87
2019-03-21T02:20:00.862Z,8.93
2019-03-21T02:22:31.190Z,7.07
2019-03-21T02:25:01.714Z,7.17
2019-03-21T02:27:31.950Z,8.17
2019-03-21T02:30:02.266Z,7.37
2019-03-21T02:32:32.496Z,7.20
2019-03-21T02:35:02.814Z,7.57
2019-03-21T02:37:33.843Z,7.80
2019-03-21T02:40:04.483Z,7.27
2019-03-21T02:42:34.710Z,7.87
2019-03-21T02:45:09.059Z,7.70
2019-03-21T02:47:37.414Z,8.23
2019-03-21T02:50:10.279Z,9.70
2019-03-21T02:52:40.558Z,8.10
2019-03-21T02:55:11.103Z,7.83
2019-03-21T02:57:41.387Z,8.60
2019-03-21T03:00:15.061Z,9.63
2019-03-21T03:02:45.475Z,9.17
2019-03-21T03:05:18.574Z,8.57
2019-03-21T03:07:48.889Z,7.97
2019-03-21T03:10:22.302Z,8.80
2019-03-21T03:12:52.622Z,9.80
2019-03-21T03:15:23.794Z,8.43
2019-03-21T03:17:54.157Z,10.60
2019-03-21T03:20:24.451Z,9.87
2019-03-21T03:22:54.679Z,10.23
2019-03-21T03:25:24.907Z,10.47
2019-03-21T03:27:56.847Z,10.33
2019-03-21T03:30:27.273Z,10.30
2019-03-21T03:32:57.713Z,9.80
2019-03-21T03:35:27.919Z,10.90
2019-03-21T03:37:58.732Z,9.63
2019-03-21T03:40:34.009Z,10.87
2019-03-21T03:43:05.628Z,10.63
2019-03-21T03:45:38.096Z,8.63
2019-03-21T03:48:08.044Z,8.03
2019-03-21T03:50:38.353Z,8.43
2019-03-21T03:53:08.594Z,9.00
2019-03-21T03:55:40.720Z,8.47
2019-03-21T03:58:19.122Z,9.57
2019-03-21T04:00:49.530Z,9.27
2019-03-21T04:03:19.915Z,9.27
2019-03-21T04:05:51.502Z,10.73
2019-03-21T04:08:21.878Z,11.00
2019-03-21T04:10:52.564Z,11.60
2019-03-21T04:13:22.998Z,9.67
2019-03-21T04:15:54.054Z,12.93
2019-03-21T04:18:24.630Z,12.97
2019-03-21T04:20:55.487Z,14.07
2019-03-21T04:23:25.734Z,12.80
2019-03-21T04:26:06.037Z,15.53
2019-03-21T04:28:36.270Z,16.07
2019-03-21T04:31:06.585Z,16.20
2019-03-21T04:33:36.821Z,18.50
2019-03-21T04:36:07.048Z,18.23
2019-03-21T04:38:37.263Z,16.80
2019-03-21T04:41:07.472Z,18.13
2019-03-21T04:43:37.726Z,16.30
2019-03-21T04:46:09.421Z,17.53
2019-03-21T04:48:39.738Z,18.00
2019-03-21T04:51:09.963Z,19.10
2019-03-21T04:53:40.280Z,18.90
2019-03-21T04:56:10.490Z,19.33
2019-03-21T04:58:40.737Z,21.93
2019-03-21T05:01:10.954Z,18.97
2019-03-21T05:03:41.357Z,22.23
2019-03-21T05:06:11.765Z,20.77
2019-03-21T05:08:42.082Z,22.37
2019-03-21T05:11:12.406Z,23.30
2019-03-21T05:13:42.698Z,21.87
2019-03-21T05:16:14.971Z,21.13
2019-03-21T05:18:45.666Z,22.83
2019-03-21T05:21:17.075Z,23.40
2019-03-21T05:23:47.346Z,22.63
2019-03-21T05:26:17.578Z,21.73
2019-03-21T05:28:47.967Z,21.83
2019-03-21T05:31:21.891Z,20.90
2019-03-21T05:33:52.195Z,18.57
2019-03-21T05:36:22.514Z,19.80
2019-03-21T05:38:52.823Z,20.73
2019-03-21T05:41:23.028Z,19.97
2019-03-21T05:43:56.805Z,20.83
2019-03-21T05:46:27.374Z,19.27
2019-03-21T05:48:57.741Z,21.20
2019-03-21T05:51:27.978Z,18.87
2019-03-21T05:53:58.209Z,19.17
2019-03-21T05:56:28.804Z,17.80
2019-03-21T05:58:59.127Z,18.70
2019-03-21T06:01:29.770Z,20.33
2019-03-21T06:04:00.002Z,17.87
2019-03-21T06:06:58.206Z,18.37
2019-03-21T06:09:28.451Z,17.43
2019-03-21T06:11:59.467Z,17.67
2019-03-21T06:14:30.028Z,18.37
2019-03-21T06:17:00.246Z,17.53
2019-03-21T06:19:37.615Z,20.97
2019-03-21T06:22:51.961Z,19.23
2019-03-21T06:25:53.622Z,20.70
2019-03-21T06:28:23.869Z,19.97
2019-03-21T06:30:54.166Z,23.33
2019-03-21T06:33:24.423Z,20.30
2019-03-21T06:35:54.642Z,24.67
2019-03-21T06:38:24.885Z,23.73
2019-03-21T06:40:55.170Z,23.67
2019-03-21T06:43:25.410Z,21.97
2019-03-21T06:45:55.709Z,22.67
2019-03-21T06:48:26.014Z,22.13
2019-03-21T06:50:56.306Z,23.43
2019-03-21T06:53:26.531Z,23.77
2019-03-21T06:55:57.142Z,22.70
2019-03-21T06:58:27.382Z,22.40
2019-03-21T07:00:57.598Z,22.07
2019-03-21T07:03:27.829Z,23.67
2019-03-21T07:05:58.098Z,23.90
2019-03-21T07:08:28.390Z,22.80
2019-03-21T07:10:58.702Z,21.73
2019-03-21T07:13:29.018Z,21.60
2019-03-21T07:15:59.242Z,22.40
2019-03-21T07:18:29.494Z,20.30
2019-03-21T07:21:01.084Z,20.20
2019-03-21T07:23:31.642Z,21.23
2019-03-21T07:26:01.933Z,20.53
2019-03-21T07:28:32.191Z,17.37
2019-03-21T07:31:02.694Z,18.67
2019-03-21T07:33:32.938Z,19.60
2019-03-21T07:36:03.244Z,17.63
2019-03-21T07:38:34.710Z,17.00
2019-03-21T07:41:05.607Z,19.63
2019-03-21T07:43:35.950Z,19.97
2019-03-21T07:46:06.242Z,22.17
2019-03-21T07:48:39.454Z,21.60
2019-03-21T07:51:09.759Z,21.90
2019-03-21T07:53:40.086Z,22.17
2019-03-21T07:56:10.391Z,22.40
2019-03-21T07:58:40.639Z,19.20
2019-03-21T08:01:10.962Z,18.77
2019-03-21T08:03:41.201Z,17.77
2019-03-21T08:06:11.434Z,15.90
2019-03-21T08:08:41.674Z,14.73
2019-03-21T08:11:11.928Z,14.07
2019-03-21T08:13:42.199Z,8.90
2019-03-21T08:16:12.427Z,6.90
2019-03-21T08:18:42.957Z,7.67
2019-03-21T08:21:13.494Z,8.30
2019-03-21T08:23:43.806Z,8.47
2019-03-21T08:26:14.033Z,8.43
2019-03-21T08:28:44.243Z,9.27
2019-03-21T08:31:16.058Z,8.60
2019-03-21T08:33:46.830Z,8.67
2019-03-21T08:36:17.534Z,7.90
2019-03-21T08:38:47.909Z,6.33
2019-03-21T08:41:18.146Z,5.70
2019-03-21T08:43:48.453Z,6.87
2019-03-21T08:46:18.684Z,5.80
2019-03-21T08:48:48.915Z,5.67
2019-03-21T08:51:19.115Z,5.50
2019-03-21T08:53:49.354Z,5.00
2019-03-21T08:56:19.659Z,4.10
2019-03-21T08:58:50.054Z,2.83
2019-03-21T09:01:20.350Z,3.70
2019-03-21T09:03:50.578Z,3.37
2019-03-21T09:06:21.784Z,4.03
2019-03-21T09:08:52.130Z,4.43
2019-03-21T09:11:22.344Z,4.77
2019-03-21T09:13:52.582Z,5.20
2019-03-21T09:16:22.882Z,4.87
2019-03-21T09:18:53.110Z,5.63
2019-03-21T09:21:23.402Z,4.97
2019-03-21T09:23:53.630Z,3.80
2019-03-21T09:26:23.881Z,3.47
2019-03-21T09:28:54.110Z,4.00
2019-03-21T09:31:24.332Z,3.40
2019-03-21T09:33:54.564Z,3.50
2019-03-21T09:36:24.882Z,4.03
2019-03-21T09:38:55.164Z,3.87
2019-03-21T09:41:25.383Z,3.17
2019-03-21T09:43:55.702Z,3.47
2019-03-21T09:46:25.936Z,3.20
2019-03-21T09:48:56.446Z,4.37
2019-03-21T09:51:30.940Z,4.07
2019-03-21T09:54:09.210Z,2.83
2019-03-21T09:56:30.490Z,3.50
2019-03-21T09:59:03.183Z,3.30
2019-03-21T10:01:33.429Z,3.07
2019-03-21T10:04:03.871Z,2.50
2019-03-21T10:06:34.085Z,3.27
2019-03-21T10:09:06.527Z,2.50
2019-03-21T10:11:36.866Z,2.70
2019-03-21T10:14:07.202Z,2.33
2019-03-21T10:16:38.701Z,2.73
2019-03-21T10:19:08.970Z,2.37
2019-03-21T10:21:43.679Z,2.60
2019-03-21T10:24:11.962Z,2.70
2019-03-21T10:26:42.260Z,2.60
2019-03-21T10:29:12.477Z,2.80
2019-03-21T10:31:42.712Z,2.47
2019-03-21T10:34:12.947Z,2.13
2019-03-21T10:36:43.162Z,2.50
2019-03-21T10:39:13.390Z,1.90
2019-03-21T10:41:43.672Z,1.70
2019-03-21T10:44:13.894Z,1.93
2019-03-21T10:46:44.112Z,1.90
2019-03-21T10:49:14.411Z,2.07
2019-03-21T10:51:54.371Z,2.00
2019-03-21T10:54:16.725Z,2.07
2019-03-21T10:56:48.300Z,2.13
2019-03-21T10:59:18.790Z,2.37
2019-03-21T11:01:49.128Z,2.90
2019-03-21T11:04:19.347Z,1.93
2019-03-21T11:06:52.051Z,2.40
2019-03-21T11:09:22.278Z,2.10
2019-03-21T11:11:52.497Z,2.87
2019-03-21T11:14:25.875Z,2.13
2019-03-21T11:16:56.241Z,1.40
2019-03-21T11:19:30.207Z,1.43
2019-03-21T11:22:06.255Z,1.63
2019-03-21T11:24:32.579Z,1.80
2019-03-21T11:27:02.797Z,2.10
2019-03-21T11:29:33.035Z,2.20
2019-03-21T11:32:04.602Z,2.30
2019-03-21T11:34:34.818Z,2.43
2019-03-21T11:37:05.457Z,2.30
2019-03-21T11:39:35.691Z,1.80
2019-03-21T11:42:05.998Z,1.63
2019-03-21T11:44:36.234Z,1.90
2019-03-21T11:47:06.630Z,2.20
2019-03-21T11:49:38.633Z,2.83
2019-03-21T11:52:17.761Z,3.47
2019-03-21T11:54:41.088Z,4.00
2019-03-21T11:57:16.978Z,4.50
2019-03-21T11:59:51.844Z,3.93
2019-03-21T12:02:27.080Z,4.17
2019-03-21T12:04:51.014Z,3.03
2019-03-21T12:07:21.286Z,2.80
2019-03-21T12:09:51.505Z,2.87
2019-03-21T12:12:21.752Z,4.00
2019-03-21T12:14:52.055Z,5.57
2019-03-21T12:17:22.279Z,4.63
2019-03-21T12:19:52.505Z,3.90
2019-03-21T12:22:29.970Z,3.90
2019-03-21T12:24:55.079Z,3.90
2019-03-21T12:27:25.471Z,3.37
2019-03-21T12:29:55.848Z,4.20
2019-03-21T12:32:26.074Z,3.37
2019-03-21T12:34:56.383Z,3.47
2019-03-21T12:37:26.654Z,3.57
2019-03-21T12:39:56.881Z,3.47
2019-03-21T12:42:27.122Z,3.47
2019-03-21T12:44:57.670Z,3.50
2019-03-21T12:47:31.573Z,3.13
2019-03-21T12:49:59.982Z,3.47
2019-03-21T12:52:40.758Z,2.53
2019-03-21T12:55:02.411Z,2.33
2019-03-21T12:57:32.646Z,2.10
2019-03-21T13:00:02.943Z,2.47
2019-03-21T13:02:34.558Z,2.33
2019-03-21T13:05:06.524Z,1.83
2019-03-21T13:07:36.782Z,2.43
2019-03-21T13:10:07.530Z,1.57
2019-03-21T13:12:37.882Z,1.90
2019-03-21T13:15:08.211Z,2.93
2019-03-21T13:17:38.554Z,2.43
2019-03-21T13:20:08.974Z,2.10
2019-03-21T13:22:39.310Z,2.40
2019-03-21T13:25:09.805Z,2.30
2019-03-21T13:27:40.046Z,2.50
2019-03-21T13:30:10.507Z,1.50
2019-03-21T13:32:43.238Z,1.90
2019-03-21T13:35:14.995Z,2.40
2019-03-21T13:37:45.419Z,2.53
2019-03-21T13:40:15.826Z,2.37
2019-03-21T13:42:46.070Z,2.70
2019-03-21T13:45:16.544Z,3.23
2019-03-21T13:47:46.863Z,3.37
2019-03-21T13:50:17.152Z,3.00
2019-03-21T13:52:48.361Z,2.60
2019-03-21T13:55:18.722Z,2.57
2019-03-21T13:57:49.018Z,2.60
2019-03-21T14:00:20.882Z,2.50
2019-03-21T14:02:51.590Z,3.00
2019-03-21T14:05:21.893Z,2.37
2019-03-21T14:07:52.110Z,2.70
2019-03-21T14:10:22.467Z,2.53
2019-03-21T14:12:52.718Z,3.77
2019-03-21T14:15:23.138Z,3.07
2019-03-21T14:17:53.391Z,3.43
2019-03-21T14:20:23.991Z,3.50
2019-03-21T14:22:54.222Z,3.27
2019-03-21T14:25:24.566Z,5.40
2019-03-21T14:27:54.797Z,3.77
2019-03-21T14:30:25.130Z,3.70
2019-03-21T14:32:55.371Z,2.73
2019-03-21T14:35:25.726Z,3.87
2019-03-21T14:37:55.967Z,3.20
2019-03-21T14:40:26.347Z,3.33
2019-03-21T14:42:56.593Z,3.10
2019-03-21T14:45:26.828Z,3.47
2019-03-21T14:47:57.050Z,2.40
2019-03-21T14:50:27.338Z,3.50
2019-03-21T14:52:57.551Z,2.57
2019-03-21T14:55:27.801Z,2.43
2019-03-21T14:57:58.026Z,2.00
2019-03-21T15:00:28.330Z,2.53
2019-03-21T15:02:58.526Z,2.73
2019-03-21T15:05:28.814Z,2.70
2019-03-21T15:07:59.039Z,3.10
2019-03-21T15:10:29.276Z,2.63
2019-03-21T15:12:59.478Z,3.00
2019-03-21T15:15:32.173Z,2.63
2019-03-21T15:18:01.741Z,3.07
2019-03-21T15:20:32.011Z,2.23
2019-03-21T15:23:04.415Z,3.10
2019-03-21T15:25:34.689Z,3.20
2019-03-21T15:28:05.058Z,3.57
2019-03-21T15:30:35.691Z,3.83
2019-03-21T15:33:06.007Z,3.50
2019-03-21T15:35:36.698Z,3.37
2019-03-21T15:38:06.930Z,3.10
2019-03-21T15:40:37.306Z,2.90
2019-03-21T15:43:07.599Z,2.50
2019-03-21T15:45:37.891Z,3.20
2019-03-21T15:48:08.130Z,3.43
2019-03-21T15:50:38.613Z,2.80
2019-03-21T15:53:09.191Z,3.17
2019-03-21T15:55:39.542Z,2.40
2019-03-21T15:58:09.783Z,2.10
2019-03-21T16:00:41.147Z,3.80
2019-03-21T16:03:13.741Z,4.77
2019-03-21T16:05:44.030Z,3.63
2019-03-21T16:08:14.534Z,3.53
2019-03-21T16:10:44.737Z,4.23
2019-03-21T16:13:14.990Z,4.30
2019-03-21T16:15:46.295Z,3.80
2019-03-21T16:18:16.518Z,2.50
2019-03-21T16:20:46.736Z,2.10
2019-03-21T16:23:19.466Z,2.10
2019-03-21T16:25:49.683Z,4.20
2019-03-21T16:28:20.372Z,4.43
2019-03-21T16:30:50.966Z,3.90
2019-03-21T16:33:21.257Z,4.30
2019-03-21T16:35:51.591Z,5.07
2019-03-21T16:38:21.807Z,5.27
2019-03-21T16:40:52.074Z,6.37
2019-03-21T16:43:22.282Z,6.20
2019-03-21T16:45:52.536Z,6.10
2019-03-21T16:48:22.765Z,7.13
2019-03-21T16:50:55.758Z,6.87
2019-03-21T16:53:26.392Z,7.57
2019-03-21T16:55:56.606Z,6.60
2019-03-21T16:58:28.506Z,8.33
2019-03-21T17:00:58.925Z,6.23
2019-03-21T17:03:29.266Z,6.07
2019-03-21T17:05:59.559Z,7.83
2019-03-21T17:08:30.805Z,6.73
2019-03-21T17:11:01.059Z,5.90
2019-03-21T17:13:31.338Z,8.83
2019-03-21T17:16:01.654Z,8.30
2019-03-21T17:18:31.908Z,6.70
2019-03-21T17:21:02.145Z,7.50
2019-03-21T17:23:32.742Z,6.47
2019-03-21T17:26:03.122Z,8.83
2019-03-21T17:28:34.005Z,9.17
2019-03-21T17:31:04.250Z,8.27
2019-03-21T17:33:34.882Z,8.10
2019-03-21T17:36:05.470Z,7.93
2019-03-21T17:38:35.702Z,9.57
2019-03-21T17:41:06.416Z,7.47
2019-03-21T17:43:37.029Z,8.40
2019-03-21T17:46:07.362Z,7.67
2019-03-21T17:48:37.604Z,8.93
2019-03-21T17:51:07.910Z,7.10
2019-03-21T17:53:39.104Z,9.23
2019-03-21T17:56:09.430Z,10.13
2019-03-21T17:58:39.750Z,11.77
2019-03-21T18:01:10.139Z,11.60
2019-03-21T18:03:40.479Z,11.00
2019-03-21T18:06:11.228Z,11.50
2019-03-21T18:08:41.494Z,11.17
2019-03-21T18:11:12.291Z,12.50
2019-03-21T18:13:42.546Z,11.37
2019-03-21T18:16:12.872Z,12.60
2019-03-21T18:18:44.687Z,14.07
2019-03-21T18:21:14.986Z,11.83
2019-03-21T18:23:45.708Z,11.60
2019-03-21T18:26:15.999Z,11.83
2019-03-21T18:28:46.376Z,11.27
2019-03-21T18:31:16.743Z,10.83
2019-03-21T18:33:46.962Z,8.90
2019-03-21T18:36:17.339Z,10.77
2019-03-21T18:38:58.662Z,10.63
2019-03-21T18:41:20.674Z,9.30
2019-03-21T18:43:50.914Z,9.53
2019-03-21T18:46:21.218Z,9.70
2019-03-21T18:48:51.818Z,8.73
2019-03-21T18:51:23.173Z,9.03
2019-03-21T18:53:53.478Z,10.70
2019-03-21T18:56:23.801Z,9.77
2019-03-21T18:58:54.037Z,9.17
2019-03-21T19:01:24.358Z,10.30
2019-03-21T19:03:55.793Z,10.03
2019-03-21T19:06:27.915Z,11.47
2019-03-21T19:08:58.199Z,11.67
2019-03-21T19:11:30.511Z,11.20
2019-03-21T19:14:00.774Z,11.20
2019-03-21T19:16:32.127Z,12.23
2019-03-21T19:19:02.470Z,10.90
2019-03-21T19:21:32.777Z,10.80
2019-03-21T19:24:03.082Z,9.63
2019-03-21T19:26:33.305Z,10.93
2019-03-21T19:29:03.547Z,11.13
2019-03-21T19:31:33.873Z,12.50
2019-03-21T19:34:04.430Z,11.87
2019-03-21T19:36:34.826Z,12.17
2019-03-21T19:39:08.317Z,14.37
2019-03-21T19:41:38.945Z,12.23
2019-03-21T19:44:09.260Z,11.17
2019-03-21T19:46:39.574Z,13.07
2019-03-21T19:49:09.800Z,14.37
2019-03-21T19:51:41.549Z,12.00
2019-03-21T19:54:11.766Z,13.13
2019-03-21T19:56:42.018Z,14.33
2019-03-21T19:59:12.234Z,12.97
2019-03-21T20:01:42.540Z,12.67
2019-03-21T20:04:12.759Z,13.13
2019-03-21T20:06:43.046Z,12.70
2019-03-21T20:09:13.358Z,14.23
2019-03-21T20:11:43.589Z,11.87
2019-03-21T20:14:13.814Z,12.70
2019-03-21T20:16:44.113Z,12.37
2019-03-21T20:19:14.381Z,12.83
2019-03-21T20:21:47.988Z,13.90
2019-03-21T20:24:16.915Z,13.97
2019-03-21T20:26:47.232Z,14.80
2019-03-21T20:29:17.470Z,16.27
2019-03-21T20:31:47.770Z,13.67
2019-03-21T20:34:18.003Z,14.17
2019-03-21T20:36:48.243Z,14.90
2019-03-21T20:39:18.582Z,14.07
2019-03-21T20:41:54.727Z,13.73
2019-03-21T20:44:24.946Z,14.30
2019-03-21T20:46:57.137Z,15.20
2019-03-21T20:49:27.359Z,15.47
2019-03-21T20:51:57.622Z,14.63
2019-03-21T20:54:27.954Z,15.10
2019-03-21T20:56:58.253Z,16.03
2019-03-21T20:59:28.552Z,15.40
2019-03-21T21:02:02.975Z,19.70
2019-03-21T21:04:30.927Z,15.50
2019-03-21T21:07:01.252Z,17.30
2019-03-21T21:09:31.643Z,15.43
2019-03-21T21:12:02.111Z,14.53
2019-03-21T21:14:32.467Z,15.20
2019-03-21T21:17:02.855Z,16.23
2019-03-21T21:19:33.154Z,16.07
2019-03-21T21:22:03.552Z,16.13
2019-03-21T21:24:33.831Z,14.07
2019-03-21T21:27:04.431Z,15.33
2019-03-21T21:29:34.807Z,14.40
2019-03-21T21:32:05.205Z,13.63
2019-03-21T21:34:35.464Z,12.97
2019-03-21T21:37:05.916Z,12.40
2019-03-21T21:39:36.224Z,11.30
2019-03-21T21:42:06.913Z,11.77
2019-03-21T21:44:38.135Z,12.37
2019-03-21T21:47:08.497Z,12.67
2019-03-21T21:49:38.830Z,12.13
2019-03-21T21:52:09.134Z,15.23
2019-03-21T21:54:39.375Z,15.47
2019-03-21T21:57:09.578Z,14.03
2019-03-21T21:59:40.878Z,17.03
2019-03-21T22:02:11.166Z,15.80
2019-03-21T22:04:41.423Z,16.30
2019-03-21T22:07:11.715Z,18.37
2019-03-21T22:09:42.055Z,18.10
2019-03-21T22:12:14.644Z,18.87
2019-03-21T22:14:45.003Z,16.50
2019-03-21T22:17:15.226Z,15.37
2019-03-21T22:19:45.480Z,15.83
2019-03-21T22:22:15.705Z,18.40
2019-03-21T22:24:45.920Z,19.07
2019-03-21T22:27:16.138Z,18.83
2019-03-21T22:29:47.453Z,18.83
2019-03-21T22:32:17.741Z,19.30
2019-03-21T22:34:47.998Z,16.53
2019-03-21T22:37:18.245Z,18.07
2019-03-21T22:39:49.028Z,16.60
2019-03-21T22:42:19.252Z,17.43
2019-03-21T22:44:49.710Z,19.83
2019-03-21T22:47:20.034Z,18.77
2019-03-21T22:49:50.618Z,19.40
2019-03-21T22:52:20.839Z,17.97
2019-03-21T22:54:51.142Z,18.07
2019-03-21T22:57:21.444Z,18.70
2019-03-21T22:59:52.127Z,19.33
2019-03-21T23:02:22.440Z,15.83
2019-03-21T23:04:52.742Z,13.93
2019-03-21T23:07:23.157Z,16.63
2019-03-21T23:09:53.396Z,16.13
2019-03-21T23:12:23.650Z,19.00
2019-03-21T23:14:53.898Z,18.83
2019-03-21T23:17:24.123Z,18.33
2019-03-21T23:19:54.420Z,18.53
2019-03-21T23:22:24.732Z,20.07
2019-03-21T23:24:56.035Z,19.87
2019-03-21T23:27:26.258Z,22.67
2019-03-21T23:29:56.489Z,23.27
2019-03-21T23:32:26.712Z,22.07
2019-03-21T23:34:56.930Z,21.90
2019-03-21T23:37:27.219Z,22.90
2019-03-21T23:39:57.454Z,21.47
2019-03-21T23:42:27.827Z,20.20
2019-03-21T23:44:58.065Z,21.63
2019-03-21T23:47:28.372Z,20.80
2019-03-21T23:49:59.830Z,18.40
2019-03-21T23:52:30.062Z,18.83
2019-03-21T23:55:00.422Z,19.10
2019-03-21T23:57:30.703Z,19.53
